createdAt,value
2022-09-14T00:01:23.585Z,2.37
2022-09-14T00:03:48.839Z,1.90
2022-09-14T00:06:16.939Z,2.20
2022-09-14T00:08:44.381Z,1.80
2022-09-14T00:11:15.540Z,1.60
2022-09-14T00:13:44.075Z,2.30
2022-09-14T00:16:13.700Z,2.03
2022-09-14T00:18:41.222Z,2.20
2022-09-14T00:21:09.590Z,2.40
2022-09-14T00:23:37.711Z,2.17
2022-09-14T00:26:05.923Z,2.30
2022-09-14T00:28:38.451Z,1.70
2022-09-14T00:31:07.012Z,2.20
2022-09-14T00:33:34.459Z,2.60
2022-09-14T00:36:08.623Z,2.60
2022-09-14T00:38:36.087Z,2.30
2022-09-14T00:41:06.708Z,2.20
2022-09-14T00:43:34.811Z,2.33
2022-09-14T00:46:02.361Z,2.20
2022-09-14T00:48:30.595Z,2.50
2022-09-14T00:50:58.156Z,3.40
2022-09-14T00:53:25.888Z,1.83
2022-09-14T00:55:53.493Z,2.20
2022-09-14T00:58:21.247Z,2.30
2022-09-14T01:00:48.730Z,2.50
2022-09-14T01:03:16.434Z,2.60
2022-09-14T01:06:05.283Z,1.90
2022-09-14T01:08:32.860Z,1.90
2022-09-14T01:11:00.448Z,2.90
2022-09-14T01:13:28.249Z,2.20
2022-09-14T01:16:17.606Z,2.30
2022-09-14T01:18:45.159Z,2.30
2022-09-14T01:21:12.825Z,3.90
2022-09-14T01:23:44.020Z,3.60
2022-09-14T01:26:11.630Z,2.80
2022-09-14T01:28:48.108Z,2.90
2022-09-14T01:31:36.191Z,3.43
2022-09-14T01:34:14.825Z,2.77
2022-09-14T01:36:43.755Z,2.70
2022-09-14T01:39:11.894Z,3.07
2022-09-14T01:41:40.436Z,2.80
2022-09-14T01:44:14.402Z,3.37
2022-09-14T01:46:46.317Z,2.40
2022-09-14T01:49:19.025Z,3.07
2022-09-14T01:51:47.609Z,3.33
2022-09-14T01:54:18.892Z,3.10
2022-09-14T01:56:57.887Z,2.93
2022-09-14T01:59:31.020Z,3.30
2022-09-14T02:02:13.117Z,1.87
2022-09-14T02:04:43.803Z,3.20
2022-09-14T02:07:11.679Z,2.50
2022-09-14T02:09:39.211Z,2.97
2022-09-14T02:12:06.782Z,2.90
2022-09-14T02:14:34.612Z,3.53
2022-09-14T02:17:02.434Z,2.97
2022-09-14T02:19:31.870Z,3.13
2022-09-14T02:21:59.493Z,2.50
2022-09-14T02:24:27.888Z,3.37
2022-09-14T02:26:55.769Z,4.17
2022-09-14T02:29:23.362Z,4.20
2022-09-14T02:32:10.324Z,3.63
2022-09-14T02:34:54.121Z,3.73
2022-09-14T02:37:40.087Z,3.03
2022-09-14T02:40:14.082Z,2.37
2022-09-14T02:42:53.458Z,2.83
2022-09-14T02:45:50.105Z,2.83
2022-09-14T02:48:26.811Z,3.30
2022-09-14T02:51:02.039Z,3.53
2022-09-14T02:53:49.732Z,3.20
2022-09-14T02:56:17.486Z,4.00
2022-09-14T02:58:45.946Z,3.07
2022-09-14T03:01:14.771Z,3.40
2022-09-14T03:03:42.508Z,2.77
2022-09-14T03:06:10.038Z,3.63
2022-09-14T03:08:37.545Z,2.33
2022-09-14T03:11:05.992Z,3.43
2022-09-14T03:13:33.769Z,3.30
2022-09-14T03:16:05.246Z,3.70
2022-09-14T03:18:33.292Z,4.17
2022-09-14T03:21:13.856Z,3.00
2022-09-14T03:23:43.218Z,3.53
2022-09-14T03:26:11.679Z,3.80
2022-09-14T03:28:39.563Z,4.47
2022-09-14T03:31:08.064Z,3.80
2022-09-14T03:33:36.018Z,4.60
2022-09-14T03:36:10.272Z,3.97
2022-09-14T03:38:38.103Z,2.30
2022-09-14T03:41:09.831Z,3.73
2022-09-14T03:43:37.326Z,3.17
2022-09-14T03:46:12.412Z,4.13
2022-09-14T03:48:40.458Z,4.03
2022-09-14T03:51:08.705Z,3.33
2022-09-14T03:53:36.714Z,3.77
2022-09-14T03:56:08.099Z,3.70
2022-09-14T03:58:35.521Z,3.40
2022-09-14T04:01:07.872Z,2.83
2022-09-14T04:03:35.589Z,3.20
2022-09-14T04:06:03.549Z,3.43
2022-09-14T04:08:30.970Z,2.60
2022-09-14T04:10:58.504Z,3.57
2022-09-14T04:13:25.921Z,3.50
2022-09-14T04:15:57.705Z,4.30
2022-09-14T04:18:25.264Z,5.90
2022-09-14T04:21:00.923Z,4.30
2022-09-14T04:23:30.921Z,3.73
2022-09-14T04:25:58.420Z,4.53
2022-09-14T04:28:27.306Z,4.60
2022-09-14T04:30:55.584Z,4.23
2022-09-14T04:33:23.441Z,4.00
2022-09-14T04:36:00.946Z,4.03
2022-09-14T04:38:29.606Z,3.50
2022-09-14T04:40:57.635Z,2.57
2022-09-14T04:43:25.877Z,3.50
2022-09-14T04:45:54.023Z,2.93
2022-09-14T04:48:21.459Z,3.73
2022-09-14T04:50:48.898Z,2.63
2022-09-14T04:53:16.314Z,3.93
2022-09-14T04:55:44.938Z,2.97
2022-09-14T04:58:12.440Z,3.40
2022-09-14T05:00:39.939Z,2.87
2022-09-14T05:03:07.431Z,4.10
2022-09-14T05:05:35.946Z,2.90
2022-09-14T05:08:03.592Z,3.53
2022-09-14T05:10:31.158Z,2.90
2022-09-14T05:12:58.824Z,3.37
2022-09-14T05:15:26.330Z,2.93
2022-09-14T05:17:53.792Z,3.97
2022-09-14T05:20:21.273Z,3.37
2022-09-14T05:22:51.616Z,4.00
2022-09-14T05:25:19.055Z,3.30
2022-09-14T05:27:46.629Z,3.67
2022-09-14T05:30:14.618Z,2.73
2022-09-14T05:32:42.077Z,4.47
2022-09-14T05:35:09.778Z,4.77
2022-09-14T05:37:37.200Z,3.90
2022-09-14T05:40:05.033Z,4.23
2022-09-14T05:42:32.572Z,3.57
2022-09-14T05:45:00.011Z,3.43
2022-09-14T05:47:30.445Z,4.83
2022-09-14T05:49:58.169Z,4.23
2022-09-14T05:52:25.608Z,2.87
2022-09-14T05:54:53.108Z,2.43
2022-09-14T05:57:20.566Z,4.50
2022-09-14T05:59:48.003Z,3.20
2022-09-14T06:02:18.154Z,5.40
2022-09-14T06:04:46.884Z,3.63
2022-09-14T06:07:18.884Z,4.53
2022-09-14T06:09:46.806Z,5.10
2022-09-14T06:12:14.255Z,6.40
2022-09-14T06:14:41.807Z,4.93
2022-09-14T06:17:09.252Z,5.33
2022-09-14T06:19:36.771Z,4.70
2022-09-14T06:22:04.262Z,4.70
2022-09-14T06:24:31.711Z,5.57
2022-09-14T06:26:59.342Z,5.30
2022-09-14T06:29:26.845Z,4.20
2022-09-14T06:31:54.663Z,5.50
2022-09-14T06:34:22.189Z,3.63
2022-09-14T06:36:49.832Z,4.80
2022-09-14T06:39:17.263Z,4.50
2022-09-14T06:41:44.783Z,3.87
2022-09-14T06:44:12.327Z,5.03
2022-09-14T06:46:39.839Z,3.53
2022-09-14T06:49:11.847Z,3.70
2022-09-14T06:51:45.383Z,3.73
2022-09-14T06:54:13.790Z,3.27
2022-09-14T06:56:42.193Z,3.63
2022-09-14T06:59:10.663Z,3.00
2022-09-14T07:01:38.568Z,4.30
2022-09-14T07:04:06.104Z,4.27
2022-09-14T07:06:40.050Z,5.10
2022-09-14T07:09:07.668Z,4.77
2022-09-14T07:11:35.254Z,5.13
2022-09-14T07:14:03.117Z,5.20
2022-09-14T07:16:31.458Z,4.87
2022-09-14T07:19:02.859Z,3.80
2022-09-14T07:21:31.164Z,4.20
2022-09-14T07:23:58.917Z,2.93
2022-09-14T07:26:27.807Z,5.77
2022-09-14T07:28:56.668Z,3.67
2022-09-14T07:31:29.091Z,3.77
2022-09-14T07:33:58.057Z,3.63
2022-09-14T07:36:26.377Z,3.87
2022-09-14T07:38:54.077Z,2.30
2022-09-14T07:41:22.561Z,3.27
2022-09-14T07:43:51.089Z,3.10
2022-09-14T07:46:19.055Z,3.30
2022-09-14T07:48:46.688Z,5.23
2022-09-14T07:51:15.453Z,3.37
2022-09-14T07:53:43.950Z,3.00
2022-09-14T07:56:11.886Z,3.53
2022-09-14T07:58:39.313Z,4.20
2022-09-14T08:01:08.213Z,5.27
2022-09-14T08:03:36.314Z,4.90
2022-09-14T08:06:09.158Z,4.93
2022-09-14T08:08:37.711Z,5.97
2022-09-14T08:11:15.813Z,4.93
2022-09-14T08:13:47.270Z,4.73
2022-09-14T08:16:14.831Z,4.27
2022-09-14T08:18:42.632Z,5.53
2022-09-14T08:21:11.495Z,5.23
2022-09-14T08:23:39.410Z,5.13
2022-09-14T08:26:11.363Z,5.17
2022-09-14T08:28:39.220Z,5.40
2022-09-14T08:31:08.008Z,5.10
2022-09-14T08:33:38.370Z,4.40
2022-09-14T08:36:07.481Z,4.10
2022-09-14T08:38:35.195Z,5.63
2022-09-14T08:41:10.162Z,3.47
2022-09-14T08:43:38.984Z,5.00
2022-09-14T08:46:10.400Z,4.23
2022-09-14T08:48:40.208Z,4.13
2022-09-14T08:51:07.847Z,3.63
2022-09-14T08:53:39.080Z,4.00
2022-09-14T08:56:25.694Z,4.40
2022-09-14T08:58:53.199Z,4.50
2022-09-14T09:01:26.583Z,5.50
2022-09-14T09:03:57.324Z,4.53
2022-09-14T09:06:38.677Z,4.80
2022-09-14T09:09:13.405Z,3.83
2022-09-14T09:11:42.374Z,4.10
2022-09-14T09:14:36.242Z,4.70
2022-09-14T09:17:12.279Z,5.97
2022-09-14T09:19:48.204Z,4.83
2022-09-14T09:22:16.826Z,4.17
2022-09-14T09:24:46.254Z,5.57
2022-09-14T09:27:14.780Z,5.67
2022-09-14T09:29:42.813Z,3.63
2022-09-14T09:32:14.984Z,6.33
2022-09-14T09:34:42.465Z,4.57
2022-09-14T09:37:17.491Z,5.00
2022-09-14T09:39:45.382Z,5.27
2022-09-14T09:42:21.778Z,4.93
2022-09-14T09:45:00.629Z,5.47
2022-09-14T09:47:31.907Z,4.77
2022-09-14T09:50:00.763Z,4.30
2022-09-14T09:52:28.410Z,5.60
2022-09-14T09:54:57.243Z,5.40
2022-09-14T09:57:34.990Z,4.07
2022-09-14T10:00:14.582Z,3.97
2022-09-14T10:02:42.276Z,4.30
2022-09-14T10:05:09.790Z,3.83
2022-09-14T10:07:53.448Z,4.30
2022-09-14T10:10:22.807Z,2.77
2022-09-14T10:12:54.778Z,2.97
2022-09-14T10:15:28.350Z,2.73
2022-09-14T10:17:57.526Z,2.97
2022-09-14T10:20:25.833Z,3.27
2022-09-14T10:22:53.435Z,3.90
2022-09-14T10:25:22.585Z,2.97
2022-09-14T10:27:56.097Z,3.60
2022-09-14T10:30:33.421Z,3.63
2022-09-14T10:33:02.426Z,4.40
2022-09-14T10:35:42.750Z,4.00
2022-09-14T10:38:22.314Z,5.63
2022-09-14T10:40:53.488Z,4.20
2022-09-14T10:43:31.876Z,3.87
2022-09-14T10:46:02.039Z,4.30
2022-09-14T10:48:50.231Z,4.73
2022-09-14T10:51:23.505Z,4.17
2022-09-14T10:53:51.008Z,5.63
2022-09-14T10:56:21.869Z,5.70
2022-09-14T10:59:01.259Z,7.30
2022-09-14T11:01:47.789Z,7.33
2022-09-14T11:04:18.121Z,8.03
2022-09-14T11:06:54.977Z,6.87
2022-09-14T11:09:39.195Z,6.90
2022-09-14T11:12:15.735Z,7.00
2022-09-14T11:14:49.075Z,6.13
2022-09-14T11:17:25.749Z,5.83
2022-09-14T11:19:53.243Z,6.20
2022-09-14T11:22:42.384Z,5.20
2022-09-14T11:25:19.289Z,5.03
2022-09-14T11:27:49.559Z,2.27
2022-09-14T11:30:21.200Z,3.07
2022-09-14T11:32:51.404Z,2.20
2022-09-14T11:35:21.083Z,2.57
2022-09-14T11:37:51.639Z,2.03
2022-09-14T11:40:28.791Z,2.20
2022-09-14T11:43:02.079Z,2.63
2022-09-14T11:45:32.508Z,2.53
2022-09-14T11:48:42.405Z,2.40
2022-09-14T11:51:19.517Z,2.27
2022-09-14T11:53:47.395Z,2.47
2022-09-14T11:56:20.780Z,2.40
2022-09-14T11:58:48.309Z,2.50
2022-09-14T12:01:48.406Z,2.07
2022-09-14T12:04:17.265Z,2.10
2022-09-14T12:06:46.852Z,3.03
2022-09-14T12:09:17.334Z,2.30
2022-09-14T12:11:52.531Z,2.27
2022-09-14T12:14:26.139Z,3.20
2022-09-14T12:17:17.315Z,2.60
2022-09-14T12:19:52.015Z,3.07
2022-09-14T12:22:19.443Z,3.07
2022-09-14T12:24:58.039Z,3.07
2022-09-14T12:27:25.736Z,3.60
2022-09-14T12:29:53.297Z,4.17
2022-09-14T12:32:26.618Z,6.10
2022-09-14T12:35:17.455Z,4.43
2022-09-14T12:37:44.953Z,5.23
2022-09-14T12:40:21.429Z,6.00
2022-09-14T12:42:48.948Z,5.10
2022-09-14T12:45:35.098Z,4.67
2022-09-14T12:48:02.551Z,4.50
2022-09-14T12:50:33.802Z,3.87
2022-09-14T12:53:04.326Z,4.97
2022-09-14T12:55:37.620Z,6.13
2022-09-14T12:58:05.075Z,5.97
2022-09-14T13:00:39.639Z,5.23
2022-09-14T13:03:26.710Z,4.60
2022-09-14T13:05:54.266Z,3.50
2022-09-14T13:08:23.658Z,3.93
2022-09-14T13:10:52.617Z,4.90
2022-09-14T13:13:22.420Z,3.73
2022-09-14T13:15:52.675Z,1.97
2022-09-14T13:18:20.163Z,1.43
2022-09-14T13:20:51.962Z,1.73
2022-09-14T13:23:23.354Z,2.10
2022-09-14T13:25:51.006Z,2.40
2022-09-14T13:28:19.179Z,2.00
2022-09-14T13:30:57.325Z,2.20
2022-09-14T13:33:25.420Z,2.07
2022-09-14T13:35:54.942Z,1.50
2022-09-14T13:38:27.414Z,2.93
2022-09-14T13:40:56.017Z,2.40
2022-09-14T13:43:23.685Z,2.63
2022-09-14T13:45:52.216Z,2.40
2022-09-14T13:48:20.337Z,3.10
2022-09-14T13:50:49.091Z,5.93
2022-09-14T13:53:35.205Z,4.40
2022-09-14T13:56:15.956Z,5.10
2022-09-14T13:58:43.401Z,5.97
2022-09-14T14:01:11.165Z,3.23
2022-09-14T14:03:38.690Z,3.17
2022-09-14T14:06:18.274Z,2.73
2022-09-14T14:08:45.778Z,3.60
2022-09-14T14:11:13.281Z,3.67
2022-09-14T14:13:40.886Z,3.07
2022-09-14T14:16:16.759Z,3.33
2022-09-14T14:18:50.243Z,3.57
2022-09-14T14:21:25.314Z,3.40
2022-09-14T14:24:12.218Z,4.00
2022-09-14T14:26:47.634Z,3.90
2022-09-14T14:29:15.242Z,3.57
2022-09-14T14:31:42.871Z,3.57
2022-09-14T14:34:23.623Z,3.70
2022-09-14T14:36:51.124Z,3.43
2022-09-14T14:39:20.023Z,2.47
2022-09-14T14:41:48.063Z,3.60
2022-09-14T14:44:20.026Z,3.30
2022-09-14T14:46:47.492Z,2.63
2022-09-14T14:49:15.964Z,3.00
2022-09-14T14:51:43.819Z,3.00
2022-09-14T14:54:11.743Z,2.77
2022-09-14T14:56:41.640Z,3.30
2022-09-14T14:59:23.575Z,3.30
2022-09-14T15:01:53.207Z,3.73
2022-09-14T15:04:22.535Z,3.70
2022-09-14T15:06:50.303Z,3.60
2022-09-14T15:09:21.867Z,3.40
2022-09-14T15:11:50.195Z,3.77
2022-09-14T15:14:24.934Z,3.57
2022-09-14T15:16:54.265Z,3.90
2022-09-14T15:19:22.797Z,3.03
2022-09-14T15:21:50.291Z,3.03
2022-09-14T15:24:17.772Z,3.10
2022-09-14T15:26:45.315Z,3.00
2022-09-14T15:29:12.827Z,2.80
2022-09-14T15:31:43.107Z,2.23
2022-09-14T15:34:10.712Z,2.50
2022-09-14T15:36:38.187Z,2.30
2022-09-14T15:39:06.541Z,2.47
2022-09-14T15:41:34.005Z,3.03
2022-09-14T15:44:01.532Z,2.33
2022-09-14T15:46:28.969Z,2.63
2022-09-14T15:48:56.482Z,2.10
2022-09-14T15:51:23.921Z,2.73
2022-09-14T15:53:51.389Z,2.83
2022-09-14T15:56:18.572Z,2.43
2022-09-14T15:58:48.301Z,2.80
2022-09-14T16:01:16.900Z,2.60
2022-09-14T16:03:44.726Z,2.87
2022-09-14T16:06:12.857Z,2.87
2022-09-14T16:08:41.089Z,3.20
2022-09-14T16:11:09.409Z,2.57
2022-09-14T16:13:37.145Z,3.70
2022-09-14T16:16:05.842Z,2.70
2022-09-14T16:18:33.653Z,2.83
2022-09-14T16:21:05.220Z,2.53
2022-09-14T16:23:33.474Z,2.80
2022-09-14T16:26:01.010Z,3.03
2022-09-14T16:28:28.465Z,2.43
2022-09-14T16:31:03.807Z,2.67
2022-09-14T16:33:31.254Z,2.57
2022-09-14T16:36:05.813Z,2.83
2022-09-14T16:38:37.454Z,2.20
2022-09-14T16:41:05.635Z,2.77
2022-09-14T16:43:33.743Z,2.70
2022-09-14T16:46:05.838Z,2.67
2022-09-14T16:48:34.066Z,2.93
2022-09-14T16:51:01.891Z,3.70
2022-09-14T16:53:30.351Z,4.57
2022-09-14T16:56:01.835Z,5.10
2022-09-14T16:58:29.447Z,6.70
2022-09-14T17:00:57.267Z,7.03
2022-09-14T17:03:31.586Z,9.53
2022-09-14T17:06:03.135Z,7.33
2022-09-14T17:08:31.144Z,8.53
2022-09-14T17:10:59.040Z,9.33
2022-09-14T17:13:27.306Z,8.27
2022-09-14T17:16:01.000Z,8.77
2022-09-14T17:18:28.792Z,11.90
2022-09-14T17:20:57.759Z,9.57
2022-09-14T17:23:25.238Z,7.57
2022-09-14T17:25:53.048Z,9.37
2022-09-14T17:28:24.630Z,7.70
2022-09-14T17:30:52.785Z,9.30
2022-09-14T17:33:20.983Z,6.83
2022-09-14T17:35:50.924Z,6.83
2022-09-14T17:38:26.803Z,8.00
2022-09-14T17:41:04.731Z,5.87
2022-09-14T17:43:33.413Z,7.20
2022-09-14T17:46:01.462Z,7.80
2022-09-14T17:48:33.207Z,8.17
2022-09-14T17:51:07.730Z,7.93
2022-09-14T17:53:39.366Z,7.00
2022-09-14T17:56:08.926Z,7.67
2022-09-14T17:58:37.651Z,6.30
2022-09-14T18:01:17.349Z,7.63
2022-09-14T18:03:52.641Z,6.27
2022-09-14T18:06:20.950Z,8.63
2022-09-14T18:08:47.984Z,8.80
2022-09-14T18:11:16.751Z,8.17
2022-09-14T18:13:48.139Z,8.37
2022-09-14T18:16:16.636Z,8.53
2022-09-14T18:18:44.530Z,9.03
2022-09-14T18:21:12.412Z,8.60
2022-09-14T18:23:39.841Z,8.37
2022-09-14T18:26:07.967Z,10.40
2022-09-14T18:28:35.922Z,9.47
2022-09-14T18:31:04.971Z,10.50
2022-09-14T18:33:32.728Z,8.07
2022-09-14T18:36:00.275Z,9.50
2022-09-14T18:38:28.125Z,11.17
2022-09-14T18:40:55.717Z,11.20
2022-09-14T18:43:23.255Z,9.17
2022-09-14T18:45:50.679Z,9.27
2022-09-14T18:48:18.117Z,10.60
2022-09-14T18:50:45.609Z,10.63
2022-09-14T18:53:13.084Z,10.90
2022-09-14T18:55:40.541Z,10.00
2022-09-14T18:58:09.252Z,11.47
2022-09-14T19:00:36.739Z,11.77
2022-09-14T19:03:04.368Z,11.93
2022-09-14T19:05:31.834Z,12.90
2022-09-14T19:07:59.312Z,12.77
2022-09-14T19:10:26.809Z,13.27
2022-09-14T19:13:12.553Z,13.00
2022-09-14T19:15:40.608Z,12.30
2022-09-14T19:18:08.559Z,13.10
2022-09-14T19:21:04.707Z,12.83
2022-09-14T19:23:27.032Z,11.77
2022-09-14T19:25:54.525Z,13.50
2022-09-14T19:28:22.050Z,13.63
2022-09-14T19:30:49.610Z,13.23
2022-09-14T19:33:17.268Z,13.23
2022-09-14T19:35:44.744Z,11.30
2022-09-14T19:38:12.227Z,12.60
2022-09-14T19:40:39.762Z,13.13
2022-09-14T19:43:07.318Z,12.67
2022-09-14T19:45:35.799Z,11.73
2022-09-14T19:48:03.404Z,11.63
2022-09-14T19:50:30.894Z,11.97
2022-09-14T19:53:02.458Z,13.20
2022-09-14T19:55:32.065Z,11.60
2022-09-14T19:57:59.745Z,12.20
2022-09-14T20:00:31.785Z,11.70
2022-09-14T20:02:59.292Z,13.77
2022-09-14T20:05:26.763Z,13.50
2022-09-14T20:07:54.263Z,12.10
2022-09-14T20:10:21.835Z,13.13
2022-09-14T20:12:49.268Z,11.13
2022-09-14T20:15:16.812Z,12.47
2022-09-14T20:17:44.274Z,12.67
2022-09-14T20:20:11.715Z,14.97
2022-09-14T20:22:39.222Z,13.40
2022-09-14T20:25:06.834Z,13.27
2022-09-14T20:27:34.281Z,14.03
2022-09-14T20:30:01.744Z,15.40
2022-09-14T20:32:29.188Z,13.70
2022-09-14T20:34:56.656Z,13.73
2022-09-14T20:37:24.197Z,14.63
2022-09-14T20:39:51.669Z,15.33
2022-09-14T20:42:19.225Z,17.27
2022-09-14T20:44:46.714Z,14.83
2022-09-14T20:47:14.177Z,13.03
2022-09-14T20:49:41.631Z,15.73
2022-09-14T20:52:09.099Z,13.87
2022-09-14T20:54:36.566Z,15.40
2022-09-14T20:57:04.718Z,15.50
2022-09-14T20:59:32.584Z,15.30
2022-09-14T21:02:03.559Z,14.03
2022-09-14T21:04:34.739Z,13.63
2022-09-14T21:07:02.358Z,14.20
2022-09-14T21:09:29.837Z,14.20
2022-09-14T21:11:57.331Z,14.93
2022-09-14T21:14:24.888Z,14.17
2022-09-14T21:16:53.917Z,15.00
2022-09-14T21:19:23.018Z,15.30
2022-09-14T21:21:51.196Z,12.87
2022-09-14T21:24:19.347Z,16.30
2022-09-14T21:26:46.875Z,17.37
2022-09-14T21:29:16.392Z,16.40
2022-09-14T21:31:43.928Z,16.93
2022-09-14T21:34:11.985Z,16.03
2022-09-14T21:36:49.662Z,15.53
2022-09-14T21:39:18.385Z,16.57
2022-09-14T21:41:46.221Z,17.83
2022-09-14T21:44:14.114Z,16.80
2022-09-14T21:46:42.081Z,18.47
2022-09-14T21:49:14.057Z,16.90
2022-09-14T21:51:41.812Z,17.73
2022-09-14T21:54:10.160Z,18.57
2022-09-14T21:56:44.871Z,15.53
2022-09-14T21:59:14.048Z,17.93
2022-09-14T22:01:42.085Z,17.07
2022-09-14T22:04:13.099Z,19.57
2022-09-14T22:06:40.590Z,19.70
2022-09-14T22:09:08.352Z,19.17
2022-09-14T22:11:36.494Z,18.77
2022-09-14T22:14:05.399Z,17.23
2022-09-14T22:16:33.599Z,17.77
2022-09-14T22:19:01.847Z,16.87
2022-09-14T22:21:29.557Z,16.80
2022-09-14T22:23:58.721Z,18.60
2022-09-14T22:26:27.713Z,17.73
2022-09-14T22:28:55.444Z,16.97
2022-09-14T22:31:23.607Z,19.00
2022-09-14T22:33:51.527Z,16.63
2022-09-14T22:36:19.068Z,17.73
2022-09-14T22:38:46.813Z,18.13
2022-09-14T22:41:15.791Z,15.60
2022-09-14T22:43:43.211Z,19.67
2022-09-14T22:46:11.140Z,18.93
2022-09-14T22:48:38.842Z,19.47
2022-09-14T22:51:07.225Z,16.37
2022-09-14T22:53:34.696Z,17.37
2022-09-14T22:56:09.644Z,18.03
2022-09-14T22:58:37.521Z,15.73
2022-09-14T23:01:06.338Z,18.37
2022-09-14T23:03:34.273Z,18.30
2022-09-14T23:06:01.873Z,18.57
2022-09-14T23:08:31.603Z,18.53
2022-09-14T23:11:05.044Z,21.47
2022-09-14T23:13:35.513Z,21.43
2022-09-14T23:16:19.930Z,18.80
2022-09-14T23:18:51.614Z,20.67
2022-09-14T23:21:19.466Z,20.93
2022-09-14T23:23:54.589Z,20.93
2022-09-14T23:26:22.653Z,20.93
2022-09-14T23:28:57.846Z,21.20
2022-09-14T23:31:26.081Z,22.63
2022-09-14T23:33:55.557Z,19.53
2022-09-14T23:36:23.410Z,21.13
2022-09-14T23:38:50.651Z,24.03
2022-09-14T23:41:19.313Z,24.30
2022-09-14T23:43:46.887Z,22.63
2022-09-14T23:46:14.741Z,23.37
2022-09-14T23:48:41.946Z,23.97
2022-09-14T23:51:10.413Z,25.23
2022-09-14T23:53:38.169Z,21.70
2022-09-14T23:56:06.219Z,22.97
2022-09-14T23:58:34.135Z,22.97
